sensor_id;sensor_type;location;lat;lon;timestamp;temperature;humidity
8872;DHT22;4472;52.092;9.820;2023-04-24T00:00:47;12.60;99.90
8872;DHT22;4472;52.092;9.820;2023-04-24T00:03:34;12.60;99.90
8872;DHT22;4472;52.092;9.820;2023-04-24T00:06:23;12.50;99.90
8872;DHT22;4472;52.092;9.820;2023-04-24T00:09:10;12.60;99.90
8872;DHT22;4472;52.092;9.820;2023-04-24T00:11:57;12.60;99.90
8872;DHT22;4472;52.092;9.820;2023-04-24T00:14:44;12.50;99.90
8872;DHT22;4472;52.092;9.820;2023-04-24T00:17:31;12.40;99.90
8872;DHT22;4472;52.092;9.820;2023-04-24T00:20:19;12.40;99.90
8872;DHT22;4472;52.092;9.820;2023-04-24T00:23:07;12.30;99.90
8872;DHT22;4472;52.092;9.820;2023-04-24T00:25:54;12.20;99.90
8872;DHT22;4472;52.092;9.820;2023-04-24T00:28:41;12.20;99.90
8872;DHT22;4472;52.092;9.820;2023-04-24T00:31:29;12.20;99.90
8872;DHT22;4472;52.092;9.820;2023-04-24T00:34:16;12.20;99.90
8872;DHT22;4472;52.092;9.820;2023-04-24T00:37:04;12.20;99.90
8872;DHT22;4472;52.092;9.820;2023-04-24T00:39:52;12.10;99.90
8872;DHT22;4472;52.092;9.820;2023-04-24T00:42:40;12.10;99.90
8872;DHT22;4472;52.092;9.820;2023-04-24T00:45:27;12.00;99.90
8872;DHT22;4472;52.092;9.820;2023-04-24T00:48:17;11.70;99.90
8872;DHT22;4472;52.092;9.820;2023-04-24T00:51:04;12.10;99.90
8872;DHT22;4472;52.092;9.820;2023-04-24T00:53:52;12.00;99.90
8872;DHT22;4472;52.092;9.820;2023-04-24T00:56:40;11.90;99.90
8872;DHT22;4472;52.092;9.820;2023-04-24T00:59:28;12.00;99.90
8872;DHT22;4472;52.092;9.820;2023-04-24T01:02:15;11.90;99.90
8872;DHT22;4472;52.092;9.820;2023-04-24T01:05:02;11.90;99.90
8872;DHT22;4472;52.092;9.820;2023-04-24T01:07:50;11.90;99.90
8872;DHT22;4472;52.092;9.820;2023-04-24T01:10:40;11.90;99.90
8872;DHT22;4472;52.092;9.820;2023-04-24T01:13:29;12.10;99.90
8872;DHT22;4472;52.092;9.820;2023-04-24T01:16:17;12.00;99.90
8872;DHT22;4472;52.092;9.820;2023-04-24T01:19:06;12.20;99.90
8872;DHT22;4472;52.092;9.820;2023-04-24T01:21:54;12.10;99.90
8872;DHT22;4472;52.092;9.820;2023-04-24T01:24:45;12.10;99.90
8872;DHT22;4472;52.092;9.820;2023-04-24T01:27:32;12.20;99.90
8872;DHT22;4472;52.092;9.820;2023-04-24T01:35:55;12.30;99.90
8872;DHT22;4472;52.092;9.820;2023-04-24T01:38:42;12.00;99.90
8872;DHT22;4472;52.092;9.820;2023-04-24T01:41:31;11.90;99.90
8872;DHT22;4472;52.092;9.820;2023-04-24T01:44:19;11.90;99.90
8872;DHT22;4472;52.092;9.820;2023-04-24T01:47:06;11.60;99.90
8872;DHT22;4472;52.092;9.820;2023-04-24T01:49:53;11.70;99.90
8872;DHT22;4472;52.092;9.820;2023-04-24T01:52:41;10.50;99.90
8872;DHT22;4472;52.092;9.820;2023-04-24T01:55:28;11.50;99.90
8872;DHT22;4472;52.092;9.820;2023-04-24T01:58:16;11.50;99.90
8872;DHT22;4472;52.092;9.820;2023-04-24T02:01:05;11.50;99.90
8872;DHT22;4472;52.092;9.820;2023-04-24T03:52:56;10.20;99.90
8872;DHT22;4472;52.092;9.820;2023-04-24T03:58:32;10.20;99.90
8872;DHT22;4472;52.092;9.820;2023-04-24T04:01:19;10.30;99.90
8872;DHT22;4472;52.092;9.820;2023-04-24T04:04:07;10.30;99.90
8872;DHT22;4472;52.092;9.820;2023-04-24T04:06:54;10.40;99.90
8872;DHT22;4472;52.092;9.820;2023-04-24T04:09:41;10.50;99.90
8872;DHT22;4472;52.092;9.820;2023-04-24T04:12:30;10.50;99.90
8872;DHT22;4472;52.092;9.820;2023-04-24T04:15:17;10.70;99.90
8872;DHT22;4472;52.092;9.820;2023-04-24T04:18:04;10.70;99.90
8872;DHT22;4472;52.092;9.820;2023-04-24T04:20:55;10.70;99.90
8872;DHT22;4472;52.092;9.820;2023-04-24T04:23:42;10.80;99.90
8872;DHT22;4472;52.092;9.820;2023-04-24T04:26:29;10.90;99.90
8872;DHT22;4472;52.092;9.820;2023-04-24T04:29:19;11.00;99.90
8872;DHT22;4472;52.092;9.820;2023-04-24T04:32:08;11.20;99.90
8872;DHT22;4472;52.092;9.820;2023-04-24T04:37:43;11.20;99.90
8872;DHT22;4472;52.092;9.820;2023-04-24T04:40:30;11.30;99.90
8872;DHT22;4472;52.092;9.820;2023-04-24T04:43:17;11.50;99.90
8872;DHT22;4472;52.092;9.820;2023-04-24T05:30:54;11.90;99.90
8872;DHT22;4472;52.092;9.820;2023-04-24T05:39:18;12.00;99.90
8872;DHT22;4472;52.092;9.820;2023-04-24T05:42:06;12.20;99.90
8872;DHT22;4472;52.092;9.820;2023-04-24T05:44:53;12.20;99.90
8872;DHT22;4472;52.092;9.820;2023-04-24T05:56:05;12.20;99.90
8872;DHT22;4472;52.092;9.820;2023-04-24T05:58:52;12.40;99.90
8872;DHT22;4472;52.092;9.820;2023-04-24T10:50:44;14.70;99.90
8872;DHT22;4472;52.092;9.820;2023-04-24T13:48:38;11.70;99.90
8872;DHT22;4472;52.092;9.820;2023-04-24T13:51:26;11.60;99.90
8872;DHT22;4472;52.092;9.820;2023-04-24T13:54:13;11.40;99.90
8872;DHT22;4472;52.092;9.820;2023-04-24T13:57:01;11.20;99.90
8872;DHT22;4472;52.092;9.820;2023-04-24T13:59:48;11.10;99.90
8872;DHT22;4472;52.092;9.820;2023-04-24T14:02:35;10.80;99.90
8872;DHT22;4472;52.092;9.820;2023-04-24T14:05:24;10.50;99.90
8872;DHT22;4472;52.092;9.820;2023-04-24T14:08:11;10.70;99.90
8872;DHT22;4472;52.092;9.820;2023-04-24T14:10:58;10.60;99.90
8872;DHT22;4472;52.092;9.820;2023-04-24T14:13:46;10.70;99.90
8872;DHT22;4472;52.092;9.820;2023-04-24T14:16:33;10.80;99.90
8872;DHT22;4472;52.092;9.820;2023-04-24T14:19:20;11.00;99.90
8872;DHT22;4472;52.092;9.820;2023-04-24T14:22:09;11.10;99.90
8872;DHT22;4472;52.092;9.820;2023-04-24T14:24:56;10.80;99.90
8872;DHT22;4472;52.092;9.820;2023-04-24T14:27:43;11.30;99.90
8872;DHT22;4472;52.092;9.820;2023-04-24T14:30:31;11.20;99.90
8872;DHT22;4472;52.092;9.820;2023-04-24T14:33:18;11.10;99.90
8872;DHT22;4472;52.092;9.820;2023-04-24T14:36:06;11.10;99.90
8872;DHT22;4472;52.092;9.820;2023-04-24T14:38:54;11.10;99.90
8872;DHT22;4472;52.092;9.820;2023-04-24T14:41:41;11.00;99.90
8872;DHT22;4472;52.092;9.820;2023-04-24T14:44:28;10.80;99.90
8872;DHT22;4472;52.092;9.820;2023-04-24T14:47:16;10.90;99.90
8872;DHT22;4472;52.092;9.820;2023-04-24T14:50:08;10.60;99.90
8872;DHT22;4472;52.092;9.820;2023-04-24T14:52:55;10.40;99.90
8872;DHT22;4472;52.092;9.820;2023-04-24T14:55:44;10.10;99.90
8872;DHT22;4472;52.092;9.820;2023-04-24T14:58:31;9.90;99.90
8872;DHT22;4472;52.092;9.820;2023-04-24T15:01:18;10.30;99.90
8872;DHT22;4472;52.092;9.820;2023-04-24T15:04:06;9.90;99.90
8872;DHT22;4472;52.092;9.820;2023-04-24T15:06:53;9.80;99.90
8872;DHT22;4472;52.092;9.820;2023-04-24T15:12:30;9.80;99.90
8872;DHT22;4472;52.092;9.820;2023-04-24T15:37:40;9.90;99.90
8872;DHT22;4472;52.092;9.820;2023-04-24T15:40:28;10.10;99.90
8872;DHT22;4472;52.092;9.820;2023-04-24T15:43:15;10.10;99.90
8872;DHT22;4472;52.092;9.820;2023-04-24T15:46:04;10.20;99.90
8872;DHT22;4472;52.092;9.820;2023-04-24T17:07:11;9.90;99.90
8872;DHT22;4472;52.092;9.820;2023-04-24T17:10:00;9.90;99.90
8872;DHT22;4472;52.092;9.820;2023-04-24T17:12:47;10.00;99.90
8872;DHT22;4472;52.092;9.820;2023-04-24T17:15:34;9.90;99.90
8872;DHT22;4472;52.092;9.820;2023-04-24T17:18:21;9.20;99.90
8872;DHT22;4472;52.092;9.820;2023-04-24T17:21:09;9.90;99.90
8872;DHT22;4472;52.092;9.820;2023-04-24T17:23:56;9.90;99.90
8872;DHT22;4472;52.092;9.820;2023-04-24T17:26:44;9.90;99.90
8872;DHT22;4472;52.092;9.820;2023-04-24T17:29:32;9.90;99.90
8872;DHT22;4472;52.092;9.820;2023-04-24T17:32:19;9.90;99.90
8872;DHT22;4472;52.092;9.820;2023-04-24T17:35:07;9.80;99.90
8872;DHT22;4472;52.092;9.820;2023-04-24T17:37:54;9.70;99.90
8872;DHT22;4472;52.092;9.820;2023-04-24T18:00:20;9.70;99.90
8872;DHT22;4472;52.092;9.820;2023-04-24T18:14:19;9.70;99.90
8872;DHT22;4472;52.092;9.820;2023-04-24T18:17:08;9.80;99.90
8872;DHT22;4472;52.092;9.820;2023-04-24T18:19:56;9.70;99.90
8872;DHT22;4472;52.092;9.820;2023-04-24T18:22:43;9.60;99.90
8872;DHT22;4472;52.092;9.820;2023-04-24T18:25:30;9.70;99.90
8872;DHT22;4472;52.092;9.820;2023-04-24T18:28:17;9.70;99.90
8872;DHT22;4472;52.092;9.820;2023-04-24T18:31:08;9.60;99.90
8872;DHT22;4472;52.092;9.820;2023-04-24T18:33:57;9.50;99.90
8872;DHT22;4472;52.092;9.820;2023-04-24T18:36:44;9.70;99.90
8872;DHT22;4472;52.092;9.820;2023-04-24T18:39:31;9.40;99.90
8872;DHT22;4472;52.092;9.820;2023-04-24T18:42:18;9.30;99.90
8872;DHT22;4472;52.092;9.820;2023-04-24T18:47:54;9.20;99.90
8872;DHT22;4472;52.092;9.820;2023-04-24T18:50:42;9.10;99.90
8872;DHT22;4472;52.092;9.820;2023-04-24T18:53:30;9.10;99.90
8872;DHT22;4472;52.092;9.820;2023-04-24T18:56:17;9.00;99.90
8872;DHT22;4472;52.092;9.820;2023-04-24T18:59:04;8.90;99.90
8872;DHT22;4472;52.092;9.820;2023-04-24T19:04:39;8.80;99.90
8872;DHT22;4472;52.092;9.820;2023-04-24T19:07:27;8.80;99.90
8872;DHT22;4472;52.092;9.820;2023-04-24T19:10:15;8.70;99.90
8872;DHT22;4472;52.092;9.820;2023-04-24T19:13:02;8.60;99.90
8872;DHT22;4472;52.092;9.820;2023-04-24T19:15:49;8.50;99.90
8872;DHT22;4472;52.092;9.820;2023-04-24T19:18:36;8.50;99.90
8872;DHT22;4472;52.092;9.820;2023-04-24T19:21:24;8.50;99.90
8872;DHT22;4472;52.092;9.820;2023-04-24T19:24:13;8.50;99.90
8872;DHT22;4472;52.092;9.820;2023-04-24T19:27:01;8.40;99.90
8872;DHT22;4472;52.092;9.820;2023-04-24T19:29:57;8.40;99.90
8872;DHT22;4472;52.092;9.820;2023-04-24T19:32:45;8.60;99.90
8872;DHT22;4472;52.092;9.820;2023-04-24T19:35:32;8.30;99.90
8872;DHT22;4472;52.092;9.820;2023-04-24T19:38:19;8.40;99.90
8872;DHT22;4472;52.092;9.820;2023-04-24T19:41:09;8.30;99.90
8872;DHT22;4472;52.092;9.820;2023-04-24T19:43:57;8.30;99.90
8872;DHT22;4472;52.092;9.820;2023-04-24T19:46:45;8.30;99.90
8872;DHT22;4472;52.092;9.820;2023-04-24T19:52:19;8.20;99.90
8872;DHT22;4472;52.092;9.820;2023-04-24T19:55:07;8.20;99.90
8872;DHT22;4472;52.092;9.820;2023-04-24T19:57:56;8.10;99.90
8872;DHT22;4472;52.092;9.820;2023-04-24T20:00:43;8.10;99.90
8872;DHT22;4472;52.092;9.820;2023-04-24T20:03:31;8.10;99.90
8872;DHT22;4472;52.092;9.820;2023-04-24T20:06:18;8.00;99.90
8872;DHT22;4472;52.092;9.820;2023-04-24T20:09:05;8.00;99.90
8872;DHT22;4472;52.092;9.820;2023-04-24T20:11:52;8.00;99.90
8872;DHT22;4472;52.092;9.820;2023-04-24T20:14:41;8.10;99.90
8872;DHT22;4472;52.092;9.820;2023-04-24T20:17:28;8.00;99.90
8872;DHT22;4472;52.092;9.820;2023-04-24T20:20:15;8.00;99.90
8872;DHT22;4472;52.092;9.820;2023-04-24T20:23:03;8.00;99.90
8872;DHT22;4472;52.092;9.820;2023-04-24T20:25:50;8.00;99.90
8872;DHT22;4472;52.092;9.820;2023-04-24T20:28:42;8.00;99.90
8872;DHT22;4472;52.092;9.820;2023-04-24T20:31:31;8.00;99.90
8872;DHT22;4472;52.092;9.820;2023-04-24T20:34:18;8.00;99.90
8872;DHT22;4472;52.092;9.820;2023-04-24T20:37:06;8.00;99.90
8872;DHT22;4472;52.092;9.820;2023-04-24T20:39:53;8.10;99.90
8872;DHT22;4472;52.092;9.820;2023-04-24T20:42:40;8.30;99.90
8872;DHT22;4472;52.092;9.820;2023-04-24T20:45:28;8.20;99.90
8872;DHT22;4472;52.092;9.820;2023-04-24T20:51:04;8.10;99.90
8872;DHT22;4472;52.092;9.820;2023-04-24T20:53:52;8.10;99.90
8872;DHT22;4472;52.092;9.820;2023-04-24T20:56:40;8.10;99.90
8872;DHT22;4472;52.092;9.820;2023-04-24T20:59:27;8.10;99.90
8872;DHT22;4472;52.092;9.820;2023-04-24T21:02:14;8.20;99.90
8872;DHT22;4472;52.092;9.820;2023-04-24T21:05:03;8.20;99.90
8872;DHT22;4472;52.092;9.820;2023-04-24T21:07:50;8.20;99.90
8872;DHT22;4472;52.092;9.820;2023-04-24T21:10:40;8.30;99.90
8872;DHT22;4472;52.092;9.820;2023-04-24T21:13:27;8.30;99.90
8872;DHT22;4472;52.092;9.820;2023-04-24T21:16:15;8.30;99.90
8872;DHT22;4472;52.092;9.820;2023-04-24T21:19:02;8.30;99.90
8872;DHT22;4472;52.092;9.820;2023-04-24T21:21:50;8.20;99.90
8872;DHT22;4472;52.092;9.820;2023-04-24T21:24:37;8.30;99.90
8872;DHT22;4472;52.092;9.820;2023-04-24T21:27:24;8.40;99.90
8872;DHT22;4472;52.092;9.820;2023-04-24T21:30:12;8.40;99.90
8872;DHT22;4472;52.092;9.820;2023-04-24T21:33:24;8.50;99.90
8872;DHT22;4472;52.092;9.820;2023-04-24T21:36:11;8.40;99.90
8872;DHT22;4472;52.092;9.820;2023-04-24T21:39:00;8.40;99.90
8872;DHT22;4472;52.092;9.820;2023-04-24T21:41:47;8.50;99.90
8872;DHT22;4472;52.092;9.820;2023-04-24T21:44:34;8.50;99.90
8872;DHT22;4472;52.092;9.820;2023-04-24T21:47:21;8.50;99.90
8872;DHT22;4472;52.092;9.820;2023-04-24T21:50:09;8.50;99.90
8872;DHT22;4472;52.092;9.820;2023-04-24T21:52:56;8.50;99.90
8872;DHT22;4472;52.092;9.820;2023-04-24T21:55:45;8.50;99.90
8872;DHT22;4472;52.092;9.820;2023-04-24T21:58:33;8.60;99.90
8872;DHT22;4472;52.092;9.820;2023-04-24T22:01:20;8.50;99.90
8872;DHT22;4472;52.092;9.820;2023-04-24T22:04:07;8.60;99.90
8872;DHT22;4472;52.092;9.820;2023-04-24T22:06:54;8.50;99.90
8872;DHT22;4472;52.092;9.820;2023-04-24T22:09:41;8.50;99.90
8872;DHT22;4472;52.092;9.820;2023-04-24T22:12:29;8.50;99.90
8872;DHT22;4472;52.092;9.820;2023-04-24T22:15:17;8.50;99.90
8872;DHT22;4472;52.092;9.820;2023-04-24T22:18:04;8.50;99.90
8872;DHT22;4472;52.092;9.820;2023-04-24T22:20:51;8.40;99.90
8872;DHT22;4472;52.092;9.820;2023-04-24T22:23:38;8.40;99.90
8872;DHT22;4472;52.092;9.820;2023-04-24T22:26:25;8.30;99.90
8872;DHT22;4472;52.092;9.820;2023-04-24T22:29:14;8.30;99.90
8872;DHT22;4472;52.092;9.820;2023-04-24T22:32:01;8.30;99.90
8872;DHT22;4472;52.092;9.820;2023-04-24T22:34:48;8.30;99.90
8872;DHT22;4472;52.092;9.820;2023-04-24T22:37:35;8.10;99.90
8872;DHT22;4472;52.092;9.820;2023-04-24T22:40:24;8.30;99.90
8872;DHT22;4472;52.092;9.820;2023-04-24T22:43:11;8.20;99.90
8872;DHT22;4472;52.092;9.820;2023-04-24T22:46:00;8.20;99.90
8872;DHT22;4472;52.092;9.820;2023-04-24T22:48:47;8.20;99.90
8872;DHT22;4472;52.092;9.820;2023-04-24T22:51:34;8.10;99.90
8872;DHT22;4472;52.092;9.820;2023-04-24T22:54:22;8.00;99.90
8872;DHT22;4472;52.092;9.820;2023-04-24T22:57:09;8.10;99.90
8872;DHT22;4472;52.092;9.820;2023-04-24T22:59:57;7.90;99.90
8872;DHT22;4472;52.092;9.820;2023-04-24T23:02:45;8.10;99.90
8872;DHT22;4472;52.092;9.820;2023-04-24T23:05:32;8.10;99.90
8872;DHT22;4472;52.092;9.820;2023-04-24T23:08:19;8.00;99.90
8872;DHT22;4472;52.092;9.820;2023-04-24T23:11:07;8.10;99.90
8872;DHT22;4472;52.092;9.820;2023-04-24T23:13:54;8.10;99.90
8872;DHT22;4472;52.092;9.820;2023-04-24T23:16:41;8.20;99.90
8872;DHT22;4472;52.092;9.820;2023-04-24T23:19:31;8.20;99.90
8872;DHT22;4472;52.092;9.820;2023-04-24T23:22:18;8.10;99.90
8872;DHT22;4472;52.092;9.820;2023-04-24T23:25:06;8.90;99.90
8872;DHT22;4472;52.092;9.820;2023-04-24T23:27:54;8.20;99.90
8872;DHT22;4472;52.092;9.820;2023-04-24T23:30:41;8.20;99.90
8872;DHT22;4472;52.092;9.820;2023-04-24T23:33:28;8.20;99.90
8872;DHT22;4472;52.092;9.820;2023-04-24T23:36:16;8.20;99.90
8872;DHT22;4472;52.092;9.820;2023-04-24T23:39:04;8.10;99.90
8872;DHT22;4472;52.092;9.820;2023-04-24T23:41:51;8.10;99.90
8872;DHT22;4472;52.092;9.820;2023-04-24T23:44:40;8.10;99.90
8872;DHT22;4472;52.092;9.820;2023-04-24T23:47:27;8.10;99.90
8872;DHT22;4472;52.092;9.820;2023-04-24T23:50:15;8.00;99.90
8872;DHT22;4472;52.092;9.820;2023-04-24T23:53:03;8.10;99.90
8872;DHT22;4472;52.092;9.820;2023-04-24T23:55:50;7.90;99.90
8872;DHT22;4472;52.092;9.820;2023-04-24T23:58:37;8.00;99.90
